sensor_id;sensor_type;location;lat;lon;timestamp;pressure;altitude;pressure_sealevel;temperature;humidity
34243;BME280;20504;43.214;27.920;2023-01-28T00:02:05;97815.03;;;7.06;100.00
34243;BME280;20504;43.214;27.920;2023-01-28T00:04:31;97836.72;;;6.90;100.00
34243;BME280;20504;43.214;27.920;2023-01-28T00:06:56;97834.06;;;7.00;100.00
34243;BME280;20504;43.214;27.920;2023-01-28T00:09:22;97833.25;;;6.99;100.00
34243;BME280;20504;43.214;27.920;2023-01-28T00:11:47;97825.47;;;6.98;100.00
34243;BME280;20504;43.214;27.920;2023-01-28T00:14:13;97840.75;;;6.85;100.00
34243;BME280;20504;43.214;27.920;2023-01-28T00:16:38;97807.03;;;6.98;100.00
34243;BME280;20504;43.214;27.920;2023-01-28T00:19:04;97833.13;;;6.91;100.00
34243;BME280;20504;43.214;27.920;2023-01-28T00:21:29;97824.09;;;6.94;100.00
34243;BME280;20504;43.214;27.920;2023-01-28T00:23:55;97783.06;;;6.91;100.00
34243;BME280;20504;43.214;27.920;2023-01-28T00:26:22;97786.34;;;7.03;100.00
34243;BME280;20504;43.214;27.920;2023-01-28T00:28:48;97801.91;;;6.96;100.00
34243;BME280;20504;43.214;27.920;2023-01-28T00:31:21;97773.75;;;7.07;100.00
34243;BME280;20504;43.214;27.920;2023-01-28T00:33:49;97779.84;;;6.97;100.00
34243;BME280;20504;43.214;27.920;2023-01-28T00:36:15;97784.88;;;6.91;100.00
34243;BME280;20504;43.214;27.920;2023-01-28T00:38:41;97772.69;;;6.90;100.00
34243;BME280;20504;43.214;27.920;2023-01-28T00:41:17;97702.84;;;7.13;100.00
34243;BME280;20504;43.214;27.920;2023-01-28T00:43:47;97696.47;;;7.06;100.00
34243;BME280;20504;43.214;27.920;2023-01-28T00:46:12;97686.19;;;7.13;100.00
34243;BME280;20504;43.214;27.920;2023-01-28T00:48:39;97665.94;;;7.13;100.00
34243;BME280;20504;43.214;27.920;2023-01-28T00:51:06;97676.94;;;7.09;100.00
34243;BME280;20504;43.214;27.920;2023-01-28T00:53:32;97700.56;;;6.91;100.00
34243;BME280;20504;43.214;27.920;2023-01-28T00:56:02;97692.97;;;6.78;100.00
34243;BME280;20504;43.214;27.920;2023-01-28T00:58:28;97697.38;;;6.87;100.00
34243;BME280;20504;43.214;27.920;2023-01-28T01:00:53;97684.09;;;6.79;100.00
34243;BME280;20504;43.214;27.920;2023-01-28T01:03:19;97645.78;;;6.94;100.00
34243;BME280;20504;43.214;27.920;2023-01-28T01:05:44;97625.34;;;6.69;100.00
34243;BME280;20504;43.214;27.920;2023-01-28T01:08:10;97625.56;;;6.85;100.00
34243;BME280;20504;43.214;27.920;2023-01-28T01:10:37;97631.88;;;6.65;100.00
34243;BME280;20504;43.214;27.920;2023-01-28T01:13:04;97589.28;;;6.79;100.00
34243;BME280;20504;43.214;27.920;2023-01-28T01:15:30;97592.25;;;6.66;100.00
34243;BME280;20504;43.214;27.920;2023-01-28T01:17:56;97573.66;;;6.68;100.00
34243;BME280;20504;43.214;27.920;2023-01-28T01:20:24;97554.25;;;6.69;100.00
34243;BME280;20504;43.214;27.920;2023-01-28T01:22:50;97553.25;;;6.52;100.00
34243;BME280;20504;43.214;27.920;2023-01-28T01:25:16;97518.66;;;6.65;100.00
34243;BME280;20504;43.214;27.920;2023-01-28T01:27:42;97513.69;;;6.62;100.00
34243;BME280;20504;43.214;27.920;2023-01-28T01:30:11;97506.25;;;6.57;100.00
34243;BME280;20504;43.214;27.920;2023-01-28T01:32:36;97490.34;;;6.49;100.00
34243;BME280;20504;43.214;27.920;2023-01-28T01:35:03;97486.00;;;6.58;100.00
34243;BME280;20504;43.214;27.920;2023-01-28T01:37:31;97428.81;;;6.68;100.00
34243;BME280;20504;43.214;27.920;2023-01-28T01:39:56;97422.97;;;6.74;100.00
34243;BME280;20504;43.214;27.920;2023-01-28T01:42:23;97470.50;;;6.55;100.00
34243;BME280;20504;43.214;27.920;2023-01-28T01:50:28;97401.91;;;6.56;100.00
34243;BME280;20504;43.214;27.920;2023-01-28T01:52:59;97411.69;;;6.64;100.00
34243;BME280;20504;43.214;27.920;2023-01-28T01:55:29;97481.91;;;6.46;100.00
34243;BME280;20504;43.214;27.920;2023-01-28T01:57:57;97468.09;;;6.61;100.00
34243;BME280;20504;43.214;27.920;2023-01-28T02:00:24;97502.09;;;6.55;100.00
34243;BME280;20504;43.214;27.920;2023-01-28T02:02:51;97517.91;;;6.55;100.00
34243;BME280;20504;43.214;27.920;2023-01-28T02:05:19;97547.72;;;6.46;100.00
34243;BME280;20504;43.214;27.920;2023-01-28T02:07:47;97540.31;;;6.59;100.00
34243;BME280;20504;43.214;27.920;2023-01-28T02:10:14;97577.78;;;6.43;100.00
34243;BME280;20504;43.214;27.920;2023-01-28T02:12:46;97615.91;;;6.39;100.00
34243;BME280;20504;43.214;27.920;2023-01-28T02:15:23;97585.81;;;6.51;100.00
34243;BME280;20504;43.214;27.920;2023-01-28T02:17:50;97602.44;;;6.52;100.00
34243;BME280;20504;43.214;27.920;2023-01-28T02:20:18;97637.91;;;6.48;100.00
34243;BME280;20504;43.214;27.920;2023-01-28T02:28:39;97705.00;;;6.24;100.00
34243;BME280;20504;43.214;27.920;2023-01-28T02:31:14;97750.16;;;6.10;100.00
34243;BME280;20504;43.214;27.920;2023-01-28T02:33:58;97774.78;;;6.09;100.00
34243;BME280;20504;43.214;27.920;2023-01-28T02:36:39;97737.44;;;6.15;100.00
34243;BME280;20504;43.214;27.920;2023-01-28T02:39:15;97790.59;;;6.09;100.00
34243;BME280;20504;43.214;27.920;2023-01-28T02:41:51;97851.47;;;5.95;100.00
34243;BME280;20504;43.214;27.920;2023-01-28T02:44:17;97854.69;;;6.08;100.00
34243;BME280;20504;43.214;27.920;2023-01-28T02:46:43;97885.56;;;6.06;100.00
34243;BME280;20504;43.214;27.920;2023-01-28T02:49:38;97913.16;;;5.81;100.00
34243;BME280;20504;43.214;27.920;2023-01-28T02:55:38;97899.34;;;5.89;100.00
34243;BME280;20504;43.214;27.920;2023-01-28T03:03:50;97971.88;;;5.61;100.00
34243;BME280;20504;43.214;27.920;2023-01-28T03:06:19;97976.59;;;5.67;100.00
34243;BME280;20504;43.214;27.920;2023-01-28T03:08:52;98010.66;;;5.47;100.00
34243;BME280;20504;43.214;27.920;2023-01-28T03:11:42;98018.41;;;5.28;100.00
34243;BME280;20504;43.214;27.920;2023-01-28T03:14:29;98011.22;;;5.30;100.00
34243;BME280;20504;43.214;27.920;2023-01-28T03:17:29;98018.66;;;5.25;100.00
34243;BME280;20504;43.214;27.920;2023-01-28T03:20:15;98008.06;;;5.36;100.00
34243;BME280;20504;43.214;27.920;2023-01-28T03:23:04;98011.63;;;5.26;100.00
34243;BME280;20504;43.214;27.920;2023-01-28T03:25:53;98032.41;;;5.17;100.00
34243;BME280;20504;43.214;27.920;2023-01-28T03:28:39;98060.84;;;5.12;100.00
34243;BME280;20504;43.214;27.920;2023-01-28T03:31:23;98071.75;;;5.08;100.00
34243;BME280;20504;43.214;27.920;2023-01-28T03:34:09;98072.31;;;5.11;100.00
34243;BME280;20504;43.214;27.920;2023-01-28T03:36:54;98084.88;;;5.08;100.00
34243;BME280;20504;43.214;27.920;2023-01-28T03:39:25;98119.16;;;4.95;100.00
34243;BME280;20504;43.214;27.920;2023-01-28T03:41:56;98160.25;;;4.85;100.00
34243;BME280;20504;43.214;27.920;2023-01-28T03:44:23;98145.19;;;4.98;100.00
34243;BME280;20504;43.214;27.920;2023-01-28T03:47:08;98133.38;;;5.04;100.00
34243;BME280;20504;43.214;27.920;2023-01-28T03:49:37;98171.22;;;4.90;100.00
34243;BME280;20504;43.214;27.920;2023-01-28T03:52:03;98190.69;;;4.88;100.00
34243;BME280;20504;43.214;27.920;2023-01-28T03:54:28;98192.47;;;4.87;100.00
34243;BME280;20504;43.214;27.920;2023-01-28T03:56:54;98208.34;;;4.97;100.00
34243;BME280;20504;43.214;27.920;2023-01-28T03:59:19;98214.94;;;5.02;100.00
34243;BME280;20504;43.214;27.920;2023-01-28T04:01:45;98195.44;;;5.16;100.00
34243;BME280;20504;43.214;27.920;2023-01-28T04:04:10;98223.53;;;5.04;100.00
34243;BME280;20504;43.214;27.920;2023-01-28T04:06:50;98223.66;;;5.03;100.00
34243;BME280;20504;43.214;27.920;2023-01-28T04:09:16;98267.69;;;4.99;100.00
34243;BME280;20504;43.214;27.920;2023-01-28T04:11:41;98274.41;;;5.03;100.00
34243;BME280;20504;43.214;27.920;2023-01-28T04:14:07;98291.81;;;5.04;100.00
34243;BME280;20504;43.214;27.920;2023-01-28T04:16:33;98293.50;;;5.05;100.00
34243;BME280;20504;43.214;27.920;2023-01-28T04:18:58;98317.13;;;4.94;100.00
34243;BME280;20504;43.214;27.920;2023-01-28T04:21:24;98281.66;;;5.33;100.00
34243;BME280;20504;43.214;27.920;2023-01-28T04:23:49;98319.06;;;5.14;100.00
34243;BME280;20504;43.214;27.920;2023-01-28T04:26:15;98405.84;;;4.67;100.00
34243;BME280;20504;43.214;27.920;2023-01-28T04:28:40;98370.84;;;4.90;100.00
34243;BME280;20504;43.214;27.920;2023-01-28T04:31:06;98365.34;;;4.93;100.00
34243;BME280;20504;43.214;27.920;2023-01-28T04:33:31;98377.41;;;4.96;100.00
34243;BME280;20504;43.214;27.920;2023-01-28T04:35:57;98351.78;;;5.10;100.00
34243;BME280;20504;43.214;27.920;2023-01-28T04:38:22;98382.00;;;5.05;100.00
34243;BME280;20504;43.214;27.920;2023-01-28T04:40:49;98435.69;;;4.66;100.00
34243;BME280;20504;43.214;27.920;2023-01-28T04:43:15;98408.56;;;4.89;100.00
34243;BME280;20504;43.214;27.920;2023-01-28T04:45:40;98434.28;;;4.73;100.00
34243;BME280;20504;43.214;27.920;2023-01-28T04:48:06;98409.53;;;4.99;100.00
34243;BME280;20504;43.214;27.920;2023-01-28T04:50:31;98411.44;;;4.97;100.00
34243;BME280;20504;43.214;27.920;2023-01-28T04:52:57;98400.50;;;5.03;100.00
34243;BME280;20504;43.214;27.920;2023-01-28T04:55:22;98360.16;;;5.27;100.00
34243;BME280;20504;43.214;27.920;2023-01-28T04:57:48;98346.41;;;5.34;100.00
34243;BME280;20504;43.214;27.920;2023-01-28T05:00:13;98361.94;;;5.26;100.00
34243;BME280;20504;43.214;27.920;2023-01-28T05:02:39;98324.19;;;5.38;100.00
34243;BME280;20504;43.214;27.920;2023-01-28T05:05:05;98307.22;;;5.31;100.00
34243;BME280;20504;43.214;27.920;2023-01-28T05:07:33;98242.13;;;5.46;100.00
34243;BME280;20504;43.214;27.920;2023-01-28T05:09:59;98267.09;;;5.29;100.00
34243;BME280;20504;43.214;27.920;2023-01-28T05:12:24;98311.78;;;5.07;100.00
34243;BME280;20504;43.214;27.920;2023-01-28T05:14:50;98221.91;;;5.46;100.00
34243;BME280;20504;43.214;27.920;2023-01-28T05:17:15;98245.25;;;5.29;100.00
34243;BME280;20504;43.214;27.920;2023-01-28T05:19:41;98261.38;;;5.24;100.00
34243;BME280;20504;43.214;27.920;2023-01-28T05:22:06;98234.72;;;5.17;100.00
34243;BME280;20504;43.214;27.920;2023-01-28T05:24:31;98245.38;;;5.27;100.00
34243;BME280;20504;43.214;27.920;2023-01-28T05:26:57;98259.34;;;5.28;100.00
34243;BME280;20504;43.214;27.920;2023-01-28T05:29:22;98238.66;;;5.34;100.00
34243;BME280;20504;43.214;27.920;2023-01-28T05:31:48;98256.84;;;5.26;100.00
34243;BME280;20504;43.214;27.920;2023-01-28T05:34:13;98262.47;;;5.22;100.00
34243;BME280;20504;43.214;27.920;2023-01-28T05:36:39;98211.03;;;5.51;100.00
34243;BME280;20504;43.214;27.920;2023-01-28T05:39:05;98268.91;;;5.29;100.00
34243;BME280;20504;43.214;27.920;2023-01-28T05:41:32;98300.28;;;5.19;100.00
34243;BME280;20504;43.214;27.920;2023-01-28T05:43:57;98311.88;;;5.05;100.00
34243;BME280;20504;43.214;27.920;2023-01-28T05:46:23;98299.81;;;5.14;100.00
34243;BME280;20504;43.214;27.920;2023-01-28T05:48:50;98315.72;;;5.12;100.00
34243;BME280;20504;43.214;27.920;2023-01-28T05:51:15;98365.31;;;4.82;100.00
34243;BME280;20504;43.214;27.920;2023-01-28T05:53:41;98335.50;;;4.94;100.00
34243;BME280;20504;43.214;27.920;2023-01-28T05:56:07;98369.28;;;4.88;100.00
34243;BME280;20504;43.214;27.920;2023-01-28T05:58:33;98335.97;;;4.99;100.00
34243;BME280;20504;43.214;27.920;2023-01-28T06:00:58;98339.81;;;4.95;100.00
34243;BME280;20504;43.214;27.920;2023-01-28T06:03:24;98431.88;;;4.46;100.00
34243;BME280;20504;43.214;27.920;2023-01-28T06:05:49;98435.00;;;4.51;100.00
34243;BME280;20504;43.214;27.920;2023-01-28T06:08:15;98423.34;;;4.55;100.00
34243;BME280;20504;43.214;27.920;2023-01-28T06:10:40;98402.16;;;4.69;100.00
34243;BME280;20504;43.214;27.920;2023-01-28T06:13:06;98396.41;;;4.64;100.00
34243;BME280;20504;43.214;27.920;2023-01-28T06:15:31;98404.31;;;4.75;100.00
34243;BME280;20504;43.214;27.920;2023-01-28T06:17:57;98392.09;;;4.87;100.00
34243;BME280;20504;43.214;27.920;2023-01-28T06:20:23;98398.28;;;4.86;100.00
34243;BME280;20504;43.214;27.920;2023-01-28T06:22:50;98411.97;;;4.78;100.00
34243;BME280;20504;43.214;27.920;2023-01-28T06:25:16;98419.81;;;4.67;100.00
34243;BME280;20504;43.214;27.920;2023-01-28T06:27:43;98410.31;;;4.77;100.00
34243;BME280;20504;43.214;27.920;2023-01-28T06:30:10;98383.97;;;4.90;100.00
34243;BME280;20504;43.214;27.920;2023-01-28T06:32:35;98436.53;;;4.66;100.00
34243;BME280;20504;43.214;27.920;2023-01-28T06:35:01;98446.19;;;4.66;100.00
34243;BME280;20504;43.214;27.920;2023-01-28T06:37:27;98391.97;;;4.89;100.00
34243;BME280;20504;43.214;27.920;2023-01-28T06:39:52;98417.00;;;4.81;100.00
34243;BME280;20504;43.214;27.920;2023-01-28T06:42:18;98420.25;;;4.85;100.00
34243;BME280;20504;43.214;27.920;2023-01-28T06:44:44;98390.19;;;5.00;100.00
34243;BME280;20504;43.214;27.920;2023-01-28T06:47:09;98425.69;;;4.71;100.00
34243;BME280;20504;43.214;27.920;2023-01-28T06:49:36;98421.69;;;4.89;100.00
34243;BME280;20504;43.214;27.920;2023-01-28T06:52:01;98409.41;;;4.90;100.00
34243;BME280;20504;43.214;27.920;2023-01-28T06:54:28;98374.34;;;5.13;100.00
34243;BME280;20504;43.214;27.920;2023-01-28T06:56:54;98374.25;;;5.26;100.00
34243;BME280;20504;43.214;27.920;2023-01-28T06:59:19;98395.53;;;5.23;100.00
34243;BME280;20504;43.214;27.920;2023-01-28T07:01:45;98365.78;;;5.22;100.00
34243;BME280;20504;43.214;27.920;2023-01-28T07:04:11;98391.78;;;5.14;100.00
34243;BME280;20504;43.214;27.920;2023-01-28T07:06:36;98421.78;;;5.23;100.00
34243;BME280;20504;43.214;27.920;2023-01-28T07:09:02;98408.19;;;5.29;100.00
34243;BME280;20504;43.214;27.920;2023-01-28T07:11:27;98417.97;;;5.27;100.00
34243;BME280;20504;43.214;27.920;2023-01-28T07:13:53;98429.69;;;5.23;100.00
34243;BME280;20504;43.214;27.920;2023-01-28T07:16:19;98403.28;;;5.24;100.00
34243;BME280;20504;43.214;27.920;2023-01-28T07:18:45;98390.13;;;5.35;100.00
34243;BME280;20504;43.214;27.920;2023-01-28T07:21:10;98407.97;;;5.43;100.00
34243;BME280;20504;43.214;27.920;2023-01-28T07:23:36;98391.22;;;5.55;100.00
34243;BME280;20504;43.214;27.920;2023-01-28T07:26:04;98383.72;;;5.62;100.00
34243;BME280;20504;43.214;27.920;2023-01-28T07:28:29;98386.22;;;5.63;100.00
34243;BME280;20504;43.214;27.920;2023-01-28T07:30:55;98397.13;;;5.59;100.00
34243;BME280;20504;43.214;27.920;2023-01-28T07:33:21;98385.28;;;5.64;100.00
34243;BME280;20504;43.214;27.920;2023-01-28T07:35:46;98361.38;;;5.78;100.00
34243;BME280;20504;43.214;27.920;2023-01-28T07:38:12;98340.56;;;5.98;100.00
34243;BME280;20504;43.214;27.920;2023-01-28T07:40:38;98320.34;;;5.98;100.00
34243;BME280;20504;43.214;27.920;2023-01-28T07:43:04;98334.03;;;6.13;100.00
34243;BME280;20504;43.214;27.920;2023-01-28T07:45:31;98336.19;;;6.19;100.00
34243;BME280;20504;43.214;27.920;2023-01-28T07:47:59;98349.34;;;6.19;100.00
34243;BME280;20504;43.214;27.920;2023-01-28T07:50:27;98292.03;;;6.55;100.00
34243;BME280;20504;43.214;27.920;2023-01-28T07:52:54;98362.47;;;6.30;100.00
34243;BME280;20504;43.214;27.920;2023-01-28T07:55:19;98341.06;;;6.35;100.00
34243;BME280;20504;43.214;27.920;2023-01-28T07:57:53;98309.38;;;6.78;100.00
34243;BME280;20504;43.214;27.920;2023-01-28T08:00:20;98431.28;;;6.26;100.00
34243;BME280;20504;43.214;27.920;2023-01-28T08:02:47;98463.00;;;6.24;100.00
34243;BME280;20504;43.214;27.920;2023-01-28T08:05:20;98532.56;;;5.87;100.00
34243;BME280;20504;43.214;27.920;2023-01-28T08:07:46;98544.47;;;6.03;100.00
34243;BME280;20504;43.214;27.920;2023-01-28T08:10:16;98529.75;;;6.12;100.00
34243;BME280;20504;43.214;27.920;2023-01-28T08:12:54;98505.38;;;6.32;100.00
34243;BME280;20504;43.214;27.920;2023-01-28T08:15:21;98524.84;;;6.30;100.00
34243;BME280;20504;43.214;27.920;2023-01-28T08:17:47;98512.75;;;6.38;100.00
34243;BME280;20504;43.214;27.920;2023-01-28T08:20:13;98541.94;;;6.47;100.00
34243;BME280;20504;43.214;27.920;2023-01-28T08:22:38;98508.41;;;6.60;100.00
34243;BME280;20504;43.214;27.920;2023-01-28T08:25:04;98572.09;;;6.65;100.00
34243;BME280;20504;43.214;27.920;2023-01-28T08:27:30;98666.41;;;6.26;100.00
34243;BME280;20504;43.214;27.920;2023-01-28T08:29:55;98702.13;;;6.06;100.00
34243;BME280;20504;43.214;27.920;2023-01-28T08:32:21;98664.25;;;6.31;100.00
34243;BME280;20504;43.214;27.920;2023-01-28T08:34:46;98612.81;;;6.61;100.00
34243;BME280;20504;43.214;27.920;2023-01-28T08:37:12;98674.84;;;6.54;100.00
34243;BME280;20504;43.214;27.920;2023-01-28T08:39:37;98679.84;;;6.46;100.00
34243;BME280;20504;43.214;27.920;2023-01-28T08:42:05;98706.41;;;6.43;100.00
34243;BME280;20504;43.214;27.920;2023-01-28T08:44:31;98794.91;;;6.21;100.00
34243;BME280;20504;43.214;27.920;2023-01-28T08:46:56;98782.19;;;6.15;100.00
34243;BME280;20504;43.214;27.920;2023-01-28T08:49:22;98836.91;;;5.99;100.00
34243;BME280;20504;43.214;27.920;2023-01-28T08:51:47;98791.31;;;6.22;100.00
34243;BME280;20504;43.214;27.920;2023-01-28T08:54:13;98785.31;;;6.20;100.00
34243;BME280;20504;43.214;27.920;2023-01-28T08:56:38;98762.59;;;6.30;100.00
34243;BME280;20504;43.214;27.920;2023-01-28T08:59:07;98806.50;;;6.19;100.00
34243;BME280;20504;43.214;27.920;2023-01-28T09:01:32;98790.84;;;6.28;100.00
34243;BME280;20504;43.214;27.920;2023-01-28T09:03:58;98818.03;;;6.05;100.00
34243;BME280;20504;43.214;27.920;2023-01-28T09:06:23;98818.16;;;6.03;100.00
34243;BME280;20504;43.214;27.920;2023-01-28T09:08:49;98831.03;;;5.95;100.00
34243;BME280;20504;43.214;27.920;2023-01-28T09:11:15;98826.53;;;6.08;100.00
34243;BME280;20504;43.214;27.920;2023-01-28T09:13:40;98800.06;;;6.23;100.00
34243;BME280;20504;43.214;27.920;2023-01-28T09:16:06;98764.56;;;6.40;100.00
34243;BME280;20504;43.214;27.920;2023-01-28T09:18:32;98781.78;;;6.08;100.00
34243;BME280;20504;43.214;27.920;2023-01-28T09:20:57;98796.19;;;6.16;100.00
34243;BME280;20504;43.214;27.920;2023-01-28T09:23:23;98841.72;;;6.05;100.00
34243;BME280;20504;43.214;27.920;2023-01-28T09:25:48;98892.28;;;5.72;100.00
34243;BME280;20504;43.214;27.920;2023-01-28T09:28:13;98878.88;;;5.88;100.00
34243;BME280;20504;43.214;27.920;2023-01-28T09:30:39;98922.25;;;5.82;100.00
34243;BME280;20504;43.214;27.920;2023-01-28T09:33:06;98935.81;;;5.76;100.00
34243;BME280;20504;43.214;27.920;2023-01-28T09:35:32;98967.19;;;5.54;100.00
34243;BME280;20504;43.214;27.920;2023-01-28T09:37:58;98997.59;;;5.45;100.00
34243;BME280;20504;43.214;27.920;2023-01-28T09:40:41;98901.88;;;5.60;100.00
34243;BME280;20504;43.214;27.920;2023-01-28T09:45:56;98868.81;;;5.82;100.00
34243;BME280;20504;43.214;27.920;2023-01-28T09:48:27;98887.13;;;5.83;100.00
34243;BME280;20504;43.214;27.920;2023-01-28T09:50:57;98919.25;;;5.63;100.00
34243;BME280;20504;43.214;27.920;2023-01-28T09:56:12;98865.72;;;5.88;100.00
34243;BME280;20504;43.214;27.920;2023-01-28T09:58:41;98847.53;;;5.97;100.00
34243;BME280;20504;43.214;27.920;2023-01-28T10:04:18;98821.69;;;6.15;100.00
34243;BME280;20504;43.214;27.920;2023-01-28T10:12:59;98740.00;;;6.74;100.00
34243;BME280;20504;43.214;27.920;2023-01-28T10:15:53;98716.88;;;7.00;100.00
34243;BME280;20504;43.214;27.920;2023-01-28T10:18:41;98802.97;;;6.77;100.00
34243;BME280;20504;43.214;27.920;2023-01-28T10:21:27;98777.97;;;7.05;100.00
34243;BME280;20504;43.214;27.920;2023-01-28T10:24:14;98836.78;;;6.94;100.00
34243;BME280;20504;43.214;27.920;2023-01-28T10:26:41;98886.81;;;6.83;100.00
34243;BME280;20504;43.214;27.920;2023-01-28T10:29:17;98959.53;;;6.62;100.00
34243;BME280;20504;43.214;27.920;2023-01-28T10:31:52;98935.31;;;6.81;100.00
34243;BME280;20504;43.214;27.920;2023-01-28T10:34:18;98998.34;;;6.60;100.00
34243;BME280;20504;43.214;27.920;2023-01-28T10:36:44;99021.56;;;6.29;100.00
34243;BME280;20504;43.214;27.920;2023-01-28T10:39:14;99037.47;;;6.41;100.00
34243;BME280;20504;43.214;27.920;2023-01-28T10:41:40;99067.94;;;6.19;100.00
34243;BME280;20504;43.214;27.920;2023-01-28T10:44:14;99104.16;;;6.03;100.00
34243;BME280;20504;43.214;27.920;2023-01-28T10:46:42;99112.94;;;5.76;100.00
34243;BME280;20504;43.214;27.920;2023-01-28T10:49:14;99124.31;;;5.77;100.00
34243;BME280;20504;43.214;27.920;2023-01-28T10:51:42;99065.63;;;6.02;100.00
34243;BME280;20504;43.214;27.920;2023-01-28T10:54:22;99033.00;;;6.17;100.00
34243;BME280;20504;43.214;27.920;2023-01-28T10:56:51;99069.94;;;5.90;100.00
34243;BME280;20504;43.214;27.920;2023-01-28T10:59:25;98999.59;;;6.18;100.00
34243;BME280;20504;43.214;27.920;2023-01-28T11:02:03;99004.56;;;6.10;100.00
34243;BME280;20504;43.214;27.920;2023-01-28T11:04:34;99000.47;;;6.05;100.00
34243;BME280;20504;43.214;27.920;2023-01-28T11:07:03;99033.63;;;5.95;100.00
34243;BME280;20504;43.214;27.920;2023-01-28T11:09:33;99042.66;;;5.91;100.00
34243;BME280;20504;43.214;27.920;2023-01-28T11:12:19;99050.31;;;5.69;100.00
34243;BME280;20504;43.214;27.920;2023-01-28T11:14:56;99090.69;;;5.55;100.00
34243;BME280;20504;43.214;27.920;2023-01-28T11:17:24;99042.22;;;5.72;100.00
34243;BME280;20504;43.214;27.920;2023-01-28T11:19:52;99040.75;;;5.68;100.00
34243;BME280;20504;43.214;27.920;2023-01-28T11:24:51;99072.59;;;5.51;100.00
34243;BME280;20504;43.214;27.920;2023-01-28T11:27:17;99016.63;;;5.74;100.00
34243;BME280;20504;43.214;27.920;2023-01-28T11:29:48;99085.91;;;5.35;100.00
34243;BME280;20504;43.214;27.920;2023-01-28T11:32:19;99092.06;;;5.21;100.00
34243;BME280;20504;43.214;27.920;2023-01-28T11:34:52;99046.91;;;5.41;100.00
34243;BME280;20504;43.214;27.920;2023-01-28T11:37:22;99026.81;;;5.53;100.00
34243;BME280;20504;43.214;27.920;2023-01-28T11:40:20;99010.72;;;5.58;100.00
34243;BME280;20504;43.214;27.920;2023-01-28T11:42:49;98964.97;;;5.73;100.00
34243;BME280;20504;43.214;27.920;2023-01-28T11:45:17;98967.19;;;5.66;100.00
34243;BME280;20504;43.214;27.920;2023-01-28T11:50:32;98975.91;;;5.54;100.00
34243;BME280;20504;43.214;27.920;2023-01-28T11:53:15;99049.31;;;5.32;100.00
34243;BME280;20504;43.214;27.920;2023-01-28T11:58:26;98978.53;;;5.54;100.00
34243;BME280;20504;43.214;27.920;2023-01-28T12:12:05;98983.50;;;5.46;100.00
34243;BME280;20504;43.214;27.920;2023-01-28T12:28:47;98936.38;;;5.68;100.00
34243;BME280;20504;43.214;27.920;2023-01-28T12:34:24;99016.22;;;5.42;100.00
34243;BME280;20504;43.214;27.920;2023-01-28T12:42:50;98940.16;;;5.64;100.00
34243;BME280;20504;43.214;27.920;2023-01-28T12:45:29;98933.75;;;5.68;100.00
34243;BME280;20504;43.214;27.920;2023-01-28T12:48:05;98976.97;;;5.52;100.00
34243;BME280;20504;43.214;27.920;2023-01-28T12:50:48;98942.97;;;5.74;100.00
34243;BME280;20504;43.214;27.920;2023-01-28T12:53:27;98991.31;;;5.60;100.00
34243;BME280;20504;43.214;27.920;2023-01-28T12:56:12;99022.84;;;5.47;100.00
34243;BME280;20504;43.214;27.920;2023-01-28T13:01:46;98979.50;;;5.66;100.00
34243;BME280;20504;43.214;27.920;2023-01-28T13:06:53;99055.66;;;5.42;100.00
34243;BME280;20504;43.214;27.920;2023-01-28T13:09:23;99022.97;;;5.59;100.00
34243;BME280;20504;43.214;27.920;2023-01-28T13:11:51;99020.00;;;5.63;100.00
34243;BME280;20504;43.214;27.920;2023-01-28T13:14:27;99066.78;;;5.45;100.00
34243;BME280;20504;43.214;27.920;2023-01-28T13:16:52;99092.00;;;5.35;100.00
34243;BME280;20504;43.214;27.920;2023-01-28T13:21:44;99048.59;;;5.55;100.00
34243;BME280;20504;43.214;27.920;2023-01-28T13:31:42;99055.25;;;5.61;100.00
34243;BME280;20504;43.214;27.920;2023-01-28T13:34:36;99047.50;;;5.85;100.00
34243;BME280;20504;43.214;27.920;2023-01-28T13:37:29;99099.97;;;5.61;100.00
34243;BME280;20504;43.214;27.920;2023-01-28T13:40:07;99147.47;;;5.45;100.00
34243;BME280;20504;43.214;27.920;2023-01-28T13:42:57;99113.28;;;5.58;100.00
34243;BME280;20504;43.214;27.920;2023-01-28T13:45:23;99142.22;;;5.58;100.00
34243;BME280;20504;43.214;27.920;2023-01-28T13:48:00;99148.25;;;5.60;100.00
34243;BME280;20504;43.214;27.920;2023-01-28T13:50:38;99130.91;;;5.70;100.00
34243;BME280;20504;43.214;27.920;2023-01-28T13:55:52;99171.09;;;5.59;100.00
34243;BME280;20504;43.214;27.920;2023-01-28T14:19:56;99205.94;;;5.22;100.00
34243;BME280;20504;43.214;27.920;2023-01-28T14:22:22;99222.91;;;5.30;100.00
34243;BME280;20504;43.214;27.920;2023-01-28T14:24:48;99228.16;;;5.30;100.00
34243;BME280;20504;43.214;27.920;2023-01-28T14:30:19;99248.44;;;5.28;100.00
34243;BME280;20504;43.214;27.920;2023-01-28T14:32:53;99231.53;;;5.32;100.00
34243;BME280;20504;43.214;27.920;2023-01-28T14:35:31;99240.63;;;5.41;100.00
34243;BME280;20504;43.214;27.920;2023-01-28T14:37:58;99181.00;;;5.68;100.00
34243;BME280;20504;43.214;27.920;2023-01-28T14:40:27;99213.06;;;5.61;100.00
34243;BME280;20504;43.214;27.920;2023-01-28T14:42:54;99269.09;;;5.34;100.00
34243;BME280;20504;43.214;27.920;2023-01-28T14:48:29;99262.88;;;5.35;100.00
34243;BME280;20504;43.214;27.920;2023-01-28T14:53:45;99277.56;;;5.25;100.00
34243;BME280;20504;43.214;27.920;2023-01-28T15:01:45;99214.16;;;5.44;100.00
34243;BME280;20504;43.214;27.920;2023-01-28T15:04:28;99155.84;;;5.37;100.00
34243;BME280;20504;43.214;27.920;2023-01-28T15:06:54;99171.25;;;5.56;100.00
34243;BME280;20504;43.214;27.920;2023-01-28T15:09:20;99182.56;;;5.58;100.00
34243;BME280;20504;43.214;27.920;2023-01-28T15:11:48;99241.06;;;5.21;100.00
34243;BME280;20504;43.214;27.920;2023-01-28T15:14:22;99199.09;;;5.46;100.00